Find this page online at www.coolrunning.com/results/03/ma/Jul24_Westfo_set1.shtml

Westford Academy Summer Road Race Series

Westford, MA, July 24, 2003

[Overall Standings ]

Overall Results

Week 8 (July 24)

The humidity and temperature dropped just enough to make it a comfortable night. A couple of this years best times were lowered. The fast Eric Beauchesne ran a 19:42 in cat. 3 and a familiar name Andrea Mendes ran a 24:40 in cat 3 for women. The winners of the card game for walkers are Sharon Deloia with 30 and tied for second are Barbara Morrison, Paula Coppola, and Laurie Anne Posch with 28. Next week it will be three-person team competition.
POS NAME CAT TIME PTS
1 Beauchesne, Eric 3 19:42 11
2 Morse, Jeff 2 20:10 12
3 Twarog, Matthew 2 20:25 11
4 Antunes, Chris 2 21:37 10
5 Coddaire, Mark 4 21:49 24
6 Smith, Travis 2 21:55 9
7 Severo, Thomas 2 22:19 8
8 Nasatka, Roger 5 22:41 13
9 Graham, Scott 4 23:06 23
10 McCarthy, Gary 4 23:12 22
11 Beal, Stephen 4 23:22 21
12 Smith, Brian 3 23:24 10
13 Farren, Mark 3 23:37 9
  Rhoades, Jeffrey 4 23:58 20
14 Koethe, Eric 1 24:00 3
15 Mbuva, Festus 2 24:18 7
16 Gallant, Jeff 2 24:19 6
17 Lamont, Scott 3 24:24 8
18 Aseltine, Robert 2 24:26 5
19 Mendes, Andrea F3 24:40 9
20 Merrill, Les 4 24:42 19
21 Ruggiero, Mike 4 24:44 18
22 Burk, Rick 4 24:48 17
23 Bobryk, Peter 4 24:52 16
24 Beauchesne, Amy F2 25:00 3
25 Porter, Rick 3 25:17 7
26 Frimanson, Robert 4 25:18 15
27 Flint, Douglas 5 25:22 12
28 Pears, Phillip 4 25:25 14
29 Golay, Ron 5 25:26 11
30 Donnelly, Marybeth F3 25:28 8
31 Casey, Cathy F4 25:34 9
32 Sacco, Daniel 3 25:40 6
33 Powell, Elizabeth F1 25:41 4
34 Gormley, Mike 4 25:42 13
35 Morrison, Robert 4 25:49 12
36 Burns, Edward 5 25:52 10
37 Hanly, Susan F3 25:54 7
38 Alexander, Sam 2 26:05 4
39 Byrne, Nancy F4 26:12 8
40 Perreault, John 4 26:19 11
41 Van Buren, Roy 4 26:28 10
42 Kinsella, Bret 3 26:36 5
43 Schofield, Mark 4 26:44 9
44 Graf, Mark 4 26:48 8
45 Coarr, Matt 2 26:54 3
46 Robinson, Ben 1 27:03 2
47 Levasseur, Roger 5 27:11 9
48 Hildreth, Tom 5 27:23 8
49 Brown, Matt 5 27:25 7
50 Johnson, Skip 4 27:28 7
51 Ricci, Peter 3 27:29 4
52 Lane, Dan 2 27:34 2
53 Parker, John 4 27:44 6
54 Sacco, Cindy F3 27:45 6
55 Casey, Taylor F1 27:49 3
56 Miller, Rich 5 27:50 6
57 Viveiros, Jose 4 27:58 5
58 Casey, Chris 3 28:03 3
59 Williams, David 5 28:08 5
60 Peternell, Alison F3 28:11 5
61 Nikonovskty, Vladimir 4 28:12 4
62 Szamrej, Nicole F1 28:15 2
63 Hanly, Ken 4 28:19 3
64 Simpson, Jason 2 28:21 1
65 Boutotte, Raymond 5 28:25 4
66 Romvos, Judy F5 28:36 1
67 Ross, Christine F3 28:50 4
68 Oconnor, Tim 3 28:51 2
69 Cullen, Gregory 5 28:54 3
70 Ludwig, Bob 6 28:56 3
71 Haynes, Stephanie F3 29:19 3
72 O'Brien, Kathleen F4 29:55 7
73 Noya, Maria F4 30:02 6
74 McGinn, Patrick 3 30:03 1
75 Arguelles, Andrew 1 30:20 1
76 Morris, John 4 30:26 2
77 Beauchesne, Christina F3 30:34 2
78 Arguelles, George 5 30:53 2
79 Tibbetts, Judy F4 31:00 5
80 Hopkins, Jayne F4 31:19 4
81 McDermott, Paul 6 31:22 2
82 Rooney, Hollace F3 31:32 1
83 Clear, Geoffrey 5 31:54 1
84 Koethe, Dale F4 32:03 3
85 Suszynski, Therese F4 34:17 2
86 O'Clair, Sam 6 34:20 1
87 Brown, Kevin 4 34:37 1
88 Keller, Megan F1 34:46 1
89 Cullen, Gloria F4 35:45 1
90 Koethe, Alice F2 38:08 2
91 Goode, Chris F2 41:08 1
  W A L K E R S      
W01 Moeller, Niels 3 39:25 21
W02 Luck, Christopher 4 39:43 20
W03 Bartis, Judit F4 40:58 19
W04 Laste, Russell 6 41:30 18
W05 Morrison, Terry F4 41:51 17
W06 Learned, Kim F4 42:34 16
W07 Robinson, Anne F4 45:00 15
W08 Robinson, Keleigh F1 47:48 14
W09 Morrison, Barbara F1 47:49 13
W10 Coppola, Paula F5 48:50 12
W11 Egan, Barbara F3 48:59 11
W12 Dougherty, Lisa F3 48:59 10
W13 Deloia, Sharon F3 48:59 9
W14 Gagnon, Sheila F5 49:56 8
W15 Levasseur, Roberta F5 51:43 7
W16 Boutotte, Janice F5 54:11 6
W17 Michaud, Jean F6 54:12 5
W18 Laste, Thelma F6 54:44 4
W19 Chase, Deborah F5 54:51 3
W20 Posch, LaurieAnne F1 55:13 2
W21 Posch, Dorothy F4 55:14 1

Last Updated on 7/24/03
By Paul Poisson